createdAt,value
2023-07-03T00:00:05.843Z,43.50
2023-07-03T00:01:05.845Z,39.00
2023-07-03T00:02:05.850Z,38.60
2023-07-03T00:03:06.880Z,37.80
2023-07-03T00:04:05.898Z,45.50
2023-07-03T00:05:05.877Z,39.70
2023-07-03T00:06:05.793Z,33.20
2023-07-03T00:07:05.783Z,34.90
2023-07-03T00:08:05.757Z,39.90
2023-07-03T00:09:06.762Z,36.30
2023-07-03T00:10:05.902Z,41.60
2023-07-03T00:11:05.748Z,36.20
2023-07-03T00:12:05.731Z,35.90
2023-07-03T00:13:05.722Z,41.00
2023-07-03T00:14:05.729Z,42.00
2023-07-03T00:15:05.710Z,40.20
2023-07-03T00:16:05.730Z,39.60
2023-07-03T00:17:05.686Z,42.00
2023-07-03T00:18:05.677Z,43.10
2023-07-03T00:19:05.659Z,34.90
2023-07-03T00:20:05.662Z,43.50
2023-07-03T00:21:05.638Z,44.80
2023-07-03T00:22:05.636Z,36.90
2023-07-03T00:23:05.615Z,37.30
2023-07-03T00:24:05.621Z,43.40
2023-07-03T00:25:05.609Z,42.50
2023-07-03T00:26:05.603Z,37.40
2023-07-03T00:27:05.590Z,41.70
2023-07-03T00:28:05.572Z,40.30
2023-07-03T00:29:05.572Z,41.70
2023-07-03T00:30:05.563Z,35.60
2023-07-03T00:31:05.544Z,44.00
2023-07-03T00:32:05.565Z,35.70
2023-07-03T00:33:05.529Z,44.40
2023-07-03T00:34:05.533Z,45.60
2023-07-03T00:35:05.506Z,41.30
2023-07-03T00:36:05.500Z,45.90
2023-07-03T00:37:05.486Z,44.30
2023-07-03T00:38:05.494Z,34.80
2023-07-03T00:39:05.491Z,39.20
2023-07-03T00:40:05.460Z,41.20
2023-07-03T00:41:05.451Z,36.50
2023-07-03T00:42:05.440Z,41.00
2023-07-03T00:43:05.455Z,42.90
2023-07-03T00:44:05.421Z,42.60
2023-07-03T00:45:05.416Z,33.50
2023-07-03T00:46:05.419Z,44.60
2023-07-03T00:47:05.397Z,47.80
2023-07-03T00:48:05.430Z,35.20
2023-07-03T00:49:05.387Z,38.20
2023-07-03T00:50:05.371Z,41.50
2023-07-03T00:51:05.342Z,36.80
2023-07-03T00:52:06.378Z,40.30
2023-07-03T00:53:05.337Z,45.50
2023-07-03T00:54:05.326Z,40.30
2023-07-03T00:55:05.312Z,43.80
2023-07-03T00:56:05.298Z,39.00
2023-07-03T00:57:05.308Z,41.90
2023-07-03T00:58:05.280Z,47.00
2023-07-03T00:59:05.276Z,37.00
2023-07-03T01:00:05.258Z,41.90
2023-07-03T01:01:05.262Z,40.80
2023-07-03T01:02:05.275Z,39.90
2023-07-03T01:03:05.243Z,34.30
2023-07-03T01:04:05.222Z,38.20
2023-07-03T01:05:05.277Z,43.80
2023-07-03T01:06:05.265Z,35.90
2023-07-03T01:07:05.191Z,40.90
2023-07-03T01:08:05.187Z,40.80
2023-07-03T01:09:05.189Z,33.70
2023-07-03T01:10:05.181Z,38.90
2023-07-03T01:11:05.162Z,43.70
2023-07-03T01:12:05.148Z,34.70
2023-07-03T01:13:05.147Z,41.00
2023-07-03T01:14:05.122Z,40.70
2023-07-03T01:15:05.249Z,41.40
2023-07-03T01:16:05.142Z,40.50
2023-07-03T01:17:05.096Z,43.80
2023-07-03T01:18:05.081Z,41.50
2023-07-03T01:19:05.072Z,39.40
2023-07-03T01:20:05.084Z,37.60
2023-07-03T01:21:05.066Z,38.80
2023-07-03T01:22:05.041Z,43.40
2023-07-03T01:23:05.032Z,39.40
2023-07-03T01:24:05.024Z,38.50
2023-07-03T01:25:05.034Z,39.90
2023-07-03T01:26:05.000Z,37.50
2023-07-03T01:27:05.038Z,39.30
2023-07-03T01:28:04.998Z,41.20
2023-07-03T01:29:04.999Z,40.20
2023-07-03T01:30:04.987Z,36.60
2023-07-03T01:31:05.003Z,36.80
2023-07-03T01:32:04.947Z,37.80
2023-07-03T01:33:04.950Z,47.30
2023-07-03T01:34:04.960Z,38.60
2023-07-03T01:35:04.915Z,33.60
2023-07-03T01:36:04.897Z,37.40
2023-07-03T01:37:04.893Z,35.60
2023-07-03T01:38:04.880Z,40.20
2023-07-03T01:39:04.884Z,36.70
2023-07-03T01:40:04.918Z,36.30
2023-07-03T01:41:04.859Z,34.70
2023-07-03T01:42:04.835Z,37.80
2023-07-03T01:43:04.839Z,43.70
2023-07-03T01:44:04.834Z,42.20
2023-07-03T01:45:04.806Z,36.10
2023-07-03T01:46:04.849Z,38.80
2023-07-03T01:47:04.782Z,37.10
2023-07-03T01:48:04.892Z,34.70
2023-07-03T01:49:04.778Z,35.20
2023-07-03T01:50:04.770Z,36.60
2023-07-03T01:51:04.748Z,34.80
2023-07-03T01:52:04.758Z,36.40
2023-07-03T01:53:04.740Z,32.60
2023-07-03T01:54:04.735Z,37.30
2023-07-03T01:55:04.744Z,34.90
2023-07-03T01:56:04.713Z,32.30
2023-07-03T01:57:04.722Z,37.30
2023-07-03T01:58:04.859Z,35.60
2023-07-03T01:59:04.673Z,32.50
2023-07-03T02:00:04.678Z,29.20
2023-07-03T02:01:04.681Z,29.30
2023-07-03T02:02:04.692Z,30.20
2023-07-03T02:03:04.704Z,33.30
2023-07-03T02:04:04.617Z,34.90
2023-07-03T02:05:04.706Z,30.70
2023-07-03T02:06:04.594Z,34.90
2023-07-03T02:07:04.739Z,34.60
2023-07-03T02:08:04.576Z,28.50
2023-07-03T02:09:04.564Z,30.50
2023-07-03T02:10:04.568Z,29.30
2023-07-03T02:11:04.570Z,33.40
2023-07-03T02:12:04.543Z,26.90
2023-07-03T02:13:04.543Z,27.40
2023-07-03T02:14:04.515Z,27.80
2023-07-03T02:15:04.514Z,31.30
2023-07-03T02:16:04.521Z,37.20
2023-07-03T02:17:04.583Z,30.50
2023-07-03T02:18:04.508Z,30.00
2023-07-03T02:19:04.480Z,30.70
2023-07-03T02:20:04.454Z,29.50
2023-07-03T02:21:04.460Z,30.30
2023-07-03T02:22:04.462Z,32.90
2023-07-03T02:23:04.430Z,35.00
2023-07-03T02:24:04.416Z,29.90
2023-07-03T02:25:04.421Z,33.40
2023-07-03T02:26:04.409Z,28.10
2023-07-03T02:27:04.386Z,31.00
2023-07-03T02:28:04.374Z,34.00
2023-07-03T02:29:04.375Z,35.60
2023-07-03T02:30:04.380Z,30.00
2023-07-03T02:31:04.361Z,27.20
2023-07-03T02:32:04.336Z,31.60
2023-07-03T02:33:04.335Z,27.60
2023-07-03T02:34:04.329Z,30.50
2023-07-03T02:35:04.307Z,39.10
2023-07-03T02:36:04.310Z,29.60
2023-07-03T02:37:04.280Z,31.90
2023-07-03T02:38:04.275Z,32.30
2023-07-03T02:39:04.287Z,29.50
2023-07-03T02:40:04.261Z,31.50
2023-07-03T02:41:04.275Z,26.90
2023-07-03T02:42:04.230Z,30.90
2023-07-03T02:43:04.221Z,30.70
2023-07-03T02:44:04.241Z,30.60
2023-07-03T02:45:04.204Z,25.90
2023-07-03T02:46:04.240Z,37.90
2023-07-03T02:47:04.241Z,34.70
2023-07-03T02:48:04.220Z,23.30
2023-07-03T02:49:04.166Z,24.50
2023-07-03T02:50:04.208Z,25.80
2023-07-03T02:51:04.155Z,30.00
2023-07-03T02:52:04.156Z,28.40
2023-07-03T02:53:04.142Z,26.90
2023-07-03T02:54:04.115Z,26.80
2023-07-03T02:55:04.108Z,24.90
2023-07-03T02:56:04.090Z,29.90
2023-07-03T02:57:04.079Z,30.60
2023-07-03T02:58:04.082Z,32.20
2023-07-03T02:59:04.089Z,27.80
2023-07-03T03:00:04.052Z,32.10
2023-07-03T03:01:04.069Z,32.40
2023-07-03T03:02:04.034Z,25.70
2023-07-03T03:03:04.103Z,24.40
2023-07-03T03:04:04.082Z,27.90
2023-07-03T03:05:04.002Z,28.20
2023-07-03T03:06:03.992Z,32.00
2023-07-03T03:07:03.989Z,33.40
2023-07-03T03:08:03.972Z,28.20
2023-07-03T03:09:03.959Z,25.70
2023-07-03T03:10:03.950Z,27.50
2023-07-03T03:11:03.937Z,27.70
2023-07-03T03:12:03.940Z,31.50
2023-07-03T03:13:03.918Z,34.10
2023-07-03T03:14:03.909Z,31.80
2023-07-03T03:15:03.908Z,29.70
2023-07-03T03:16:03.901Z,33.00
2023-07-03T03:17:03.974Z,32.00
2023-07-03T03:18:03.983Z,29.20
2023-07-03T03:19:03.869Z,33.50
2023-07-03T03:20:03.847Z,33.20
2023-07-03T03:21:03.920Z,24.00
2023-07-03T03:22:03.830Z,29.10
2023-07-03T03:23:03.837Z,27.10
2023-07-03T03:24:03.812Z,29.20
2023-07-03T03:25:03.809Z,25.80
2023-07-03T03:26:03.809Z,28.20
2023-07-03T03:27:29.689Z,31.60
2023-07-03T03:28:03.794Z,28.40
2023-07-03T03:29:03.756Z,33.50
2023-07-03T03:30:03.783Z,26.10
2023-07-03T03:31:03.754Z,26.80
2023-07-03T03:32:03.733Z,33.10
2023-07-03T03:33:03.752Z,29.70
2023-07-03T03:34:03.707Z,34.00
2023-07-03T03:35:03.781Z,26.90
2023-07-03T03:36:03.713Z,30.80
2023-07-03T03:37:03.685Z,28.30
2023-07-03T03:38:03.701Z,25.50
2023-07-03T03:39:03.652Z,26.80
2023-07-03T03:40:03.649Z,24.10
2023-07-03T03:41:03.643Z,31.40
2023-07-03T03:42:03.622Z,27.20
2023-07-03T03:43:03.611Z,27.60
2023-07-03T03:44:03.627Z,27.10
2023-07-03T03:45:03.600Z,31.00
2023-07-03T03:46:03.582Z,28.80
2023-07-03T03:47:03.582Z,28.40
2023-07-03T03:48:03.744Z,25.20
2023-07-03T03:49:03.618Z,29.90
2023-07-03T03:50:03.536Z,29.60
2023-07-03T03:51:03.530Z,30.60
2023-07-03T03:52:03.524Z,27.20
2023-07-03T03:53:03.519Z,28.50
2023-07-03T03:54:03.512Z,30.80
2023-07-03T03:55:03.498Z,28.50
2023-07-03T03:56:03.481Z,31.50
2023-07-03T03:57:03.472Z,31.30
2023-07-03T03:58:03.471Z,29.10
2023-07-03T03:59:03.456Z,29.00
2023-07-03T04:00:03.440Z,27.50
2023-07-03T04:01:03.430Z,24.60
2023-07-03T04:02:03.543Z,29.00
2023-07-03T04:03:03.462Z,22.40
2023-07-03T04:04:03.475Z,24.70
2023-07-03T04:05:03.414Z,30.00
2023-07-03T04:06:03.392Z,28.30
2023-07-03T04:07:03.373Z,36.70
2023-07-03T04:08:03.365Z,26.80
2023-07-03T04:09:03.349Z,31.70
2023-07-03T04:10:03.337Z,30.20
2023-07-03T04:11:03.318Z,30.30
2023-07-03T04:12:03.341Z,24.20
2023-07-03T04:13:03.296Z,25.70
2023-07-03T04:14:03.334Z,28.20
2023-07-03T04:15:03.285Z,30.10
2023-07-03T04:16:03.575Z,27.90
2023-07-03T04:17:03.272Z,27.30
2023-07-03T04:18:03.319Z,27.60
2023-07-03T04:19:03.255Z,25.90
2023-07-03T04:20:03.238Z,28.00
2023-07-03T04:21:03.238Z,31.10
2023-07-03T04:22:03.222Z,30.00
2023-07-03T04:23:03.206Z,27.70
2023-07-03T04:24:03.187Z,30.70
2023-07-03T04:25:03.178Z,26.10
2023-07-03T04:26:03.180Z,30.60
2023-07-03T04:27:03.158Z,23.30
2023-07-03T04:28:03.148Z,33.10
2023-07-03T04:29:03.142Z,34.10
2023-07-03T04:30:03.140Z,29.30
2023-07-03T04:31:03.128Z,31.60
2023-07-03T04:32:03.160Z,26.80
2023-07-03T04:33:03.156Z,32.30
2023-07-03T04:34:03.094Z,25.20
2023-07-03T04:35:03.094Z,29.30
2023-07-03T04:36:03.074Z,30.70
2023-07-03T04:37:03.056Z,32.40
2023-07-03T04:38:03.047Z,31.00
2023-07-03T04:39:03.040Z,27.30
2023-07-03T04:40:03.037Z,31.90
2023-07-03T04:41:03.015Z,28.10
2023-07-03T04:42:03.004Z,30.70
2023-07-03T04:43:03.015Z,30.50
2023-07-03T04:44:02.993Z,28.00
2023-07-03T04:45:03.063Z,26.20
2023-07-03T04:46:02.992Z,25.40
2023-07-03T04:47:02.953Z,30.30
2023-07-03T04:48:02.940Z,29.60
2023-07-03T04:49:02.943Z,32.10
2023-07-03T04:50:02.936Z,31.50
2023-07-03T04:51:02.910Z,30.10
2023-07-03T04:52:02.904Z,22.70
2023-07-03T04:53:02.892Z,27.20
2023-07-03T04:54:02.890Z,25.70
2023-07-03T04:55:02.871Z,35.50
2023-07-03T04:56:02.879Z,34.80
2023-07-03T04:57:02.857Z,35.30
2023-07-03T04:58:02.841Z,31.30
2023-07-03T04:59:02.840Z,29.40
2023-07-03T05:00:02.821Z,25.80
2023-07-03T05:01:02.898Z,29.20
2023-07-03T05:02:02.804Z,32.90
2023-07-03T05:03:02.817Z,32.80
2023-07-03T05:04:03.068Z,31.50
2023-07-03T05:05:02.933Z,31.50
2023-07-03T05:06:03.755Z,28.10
2023-07-03T05:07:02.750Z,31.70
2023-07-03T05:08:02.777Z,28.70
2023-07-03T05:09:02.737Z,25.30
2023-07-03T05:10:02.818Z,29.20
2023-07-03T05:11:02.702Z,30.50
2023-07-03T05:12:02.708Z,26.90
2023-07-03T05:13:02.703Z,32.40
2023-07-03T05:14:02.678Z,34.40
2023-07-03T05:15:02.670Z,30.60
2023-07-03T05:16:02.724Z,32.70
2023-07-03T05:17:02.671Z,33.10
2023-07-03T05:18:02.690Z,27.50
2023-07-03T05:19:02.632Z,27.80
2023-07-03T05:20:02.618Z,29.00
2023-07-03T05:21:02.618Z,35.40
2023-07-03T05:22:02.613Z,39.60
2023-07-03T05:23:02.593Z,32.10
2023-07-03T05:24:02.569Z,29.70
2023-07-03T05:25:02.569Z,32.70
2023-07-03T05:26:02.559Z,28.20
2023-07-03T05:27:02.558Z,29.40
2023-07-03T05:28:02.528Z,32.50
2023-07-03T05:29:02.514Z,34.30
2023-07-03T05:30:03.512Z,35.70
2023-07-03T05:31:02.579Z,28.00
2023-07-03T05:32:02.529Z,29.30
2023-07-03T05:33:02.525Z,24.80
2023-07-03T05:34:02.463Z,30.00
2023-07-03T05:35:02.461Z,32.20
2023-07-03T05:36:02.462Z,35.70
2023-07-03T05:37:02.429Z,29.90
2023-07-03T05:38:02.433Z,31.20
2023-07-03T05:39:02.476Z,28.30
2023-07-03T05:40:02.411Z,29.70
2023-07-03T05:41:02.405Z,26.50
2023-07-03T05:42:02.387Z,29.90
2023-07-03T05:43:02.376Z,29.60
2023-07-03T05:44:02.380Z,32.80
2023-07-03T05:45:02.367Z,30.80
2023-07-03T05:46:02.363Z,31.40
2023-07-03T05:47:02.399Z,32.00
2023-07-03T05:48:02.370Z,29.80
2023-07-03T05:49:02.319Z,36.40
2023-07-03T05:50:02.328Z,27.60
2023-07-03T05:51:02.304Z,30.10
2023-07-03T05:52:02.283Z,30.80
2023-07-03T05:53:02.284Z,28.30
2023-07-03T05:54:02.265Z,30.70
2023-07-03T05:55:02.267Z,22.60
2023-07-03T05:56:02.240Z,33.10
2023-07-03T05:57:02.230Z,29.40
2023-07-03T05:58:02.224Z,29.00
2023-07-03T05:59:02.229Z,34.30
2023-07-03T06:00:02.275Z,31.50
2023-07-03T06:01:02.233Z,31.50
2023-07-03T06:02:02.182Z,27.00
2023-07-03T06:03:02.250Z,32.70
2023-07-03T06:04:02.210Z,28.50
2023-07-03T06:05:02.259Z,34.30
2023-07-03T06:06:02.148Z,33.40
2023-07-03T06:07:02.168Z,26.70
2023-07-03T06:08:02.132Z,23.50
2023-07-03T06:09:02.153Z,29.70
2023-07-03T06:10:02.112Z,30.80
2023-07-03T06:11:02.089Z,28.30
2023-07-03T06:12:02.088Z,29.60
2023-07-03T06:13:02.082Z,28.20
2023-07-03T06:14:02.077Z,29.10
2023-07-03T06:15:02.071Z,33.60
2023-07-03T06:16:02.048Z,30.90
2023-07-03T06:17:02.059Z,26.60
2023-07-03T06:18:02.171Z,28.60
2023-07-03T06:19:02.018Z,25.70
2023-07-03T06:20:02.021Z,28.80
2023-07-03T06:21:02.003Z,27.30
2023-07-03T06:22:01.988Z,32.90
2023-07-03T06:23:01.977Z,30.20
2023-07-03T06:24:03.406Z,26.00
2023-07-03T06:25:01.955Z,27.20
2023-07-03T06:26:01.957Z,28.60
2023-07-03T06:27:01.951Z,33.30
2023-07-03T06:28:01.942Z,32.30
2023-07-03T06:29:01.923Z,30.10
2023-07-03T06:30:01.906Z,28.70
2023-07-03T06:31:02.047Z,30.60
2023-07-03T06:32:01.896Z,26.90
2023-07-03T06:33:01.938Z,26.20
2023-07-03T06:34:01.880Z,30.60
2023-07-03T06:35:05.321Z,27.40
2023-07-03T06:36:03.896Z,29.40
2023-07-03T06:37:01.846Z,32.60
2023-07-03T06:38:01.831Z,31.90
2023-07-03T06:39:01.821Z,26.50
2023-07-03T06:40:01.817Z,25.20
2023-07-03T06:41:01.809Z,25.00
2023-07-03T06:42:01.808Z,26.80
2023-07-03T06:43:01.789Z,23.90
2023-07-03T06:44:01.768Z,27.60
2023-07-03T06:45:01.774Z,28.60
2023-07-03T06:46:01.916Z,22.40
2023-07-03T06:47:01.868Z,26.80
2023-07-03T06:48:01.761Z,24.80
2023-07-03T06:49:01.734Z,23.20
2023-07-03T06:50:01.710Z,34.10
2023-07-03T06:51:01.716Z,28.90
2023-07-03T06:52:01.727Z,26.10
2023-07-03T06:53:01.690Z,25.70
2023-07-03T06:54:01.668Z,31.40
2023-07-03T06:55:01.671Z,26.00
2023-07-03T06:56:01.661Z,26.40
2023-07-03T06:57:01.637Z,22.70
2023-07-03T06:58:01.669Z,23.60
2023-07-03T06:59:01.622Z,25.30
2023-07-03T07:00:01.621Z,27.40
2023-07-03T07:01:01.603Z,23.20
2023-07-03T07:02:01.747Z,27.50
2023-07-03T07:03:01.684Z,27.30
2023-07-03T07:04:01.610Z,23.10
2023-07-03T07:05:03.213Z,24.00
2023-07-03T07:06:02.675Z,22.50
2023-07-03T07:07:01.542Z,30.30
2023-07-03T07:08:01.533Z,26.30
2023-07-03T07:09:01.535Z,25.30
2023-07-03T07:10:01.552Z,31.40
2023-07-03T07:11:01.505Z,26.40
2023-07-03T07:12:01.493Z,24.50
2023-07-03T07:13:01.489Z,25.60
2023-07-03T07:14:01.487Z,23.90
2023-07-03T07:15:01.469Z,24.20
2023-07-03T07:16:01.463Z,25.50
2023-07-03T07:17:01.642Z,31.50
2023-07-03T07:18:01.548Z,26.30
2023-07-03T07:19:01.440Z,22.00
2023-07-03T07:20:01.419Z,26.20
2023-07-03T07:21:01.414Z,27.40
2023-07-03T07:22:01.398Z,21.40
2023-07-03T07:23:01.400Z,22.80
2023-07-03T07:24:01.394Z,24.50
2023-07-03T07:25:01.367Z,21.50
2023-07-03T07:26:01.375Z,25.70
2023-07-03T07:27:01.349Z,22.40
2023-07-03T07:28:01.348Z,26.30
2023-07-03T07:29:01.348Z,25.50
2023-07-03T07:30:01.334Z,20.90
2023-07-03T07:31:01.345Z,24.40
2023-07-03T07:32:01.303Z,24.00
2023-07-03T07:33:01.427Z,25.70
2023-07-03T07:34:01.416Z,25.00
2023-07-03T07:35:01.264Z,25.80
2023-07-03T07:36:01.259Z,28.40
2023-07-03T07:37:01.257Z,23.40
2023-07-03T07:38:01.253Z,27.70
2023-07-03T07:39:01.224Z,26.30
2023-07-03T07:40:01.224Z,23.40
2023-07-03T07:41:01.209Z,25.70
2023-07-03T07:42:01.209Z,24.50
2023-07-03T07:43:01.205Z,26.60
2023-07-03T07:44:01.180Z,22.20
2023-07-03T07:45:01.164Z,25.30
2023-07-03T07:46:01.214Z,24.70
2023-07-03T07:47:01.164Z,26.10
2023-07-03T07:48:01.218Z,24.50
2023-07-03T07:49:01.206Z,23.20
2023-07-03T07:50:01.119Z,24.40
2023-07-03T07:51:01.127Z,19.70
2023-07-03T07:52:01.451Z,28.40
2023-07-03T07:53:01.123Z,20.30
2023-07-03T07:54:01.177Z,23.20
2023-07-03T07:55:01.068Z,20.50
2023-07-03T07:56:01.067Z,25.70
2023-07-03T07:57:01.055Z,21.50
2023-07-03T07:58:01.051Z,27.90
2023-07-03T07:59:01.082Z,23.00
2023-07-03T08:00:01.055Z,24.90
2023-07-03T08:01:01.089Z,28.80
2023-07-03T08:02:01.037Z,22.10
2023-07-03T08:03:01.100Z,24.40
2023-07-03T08:04:01.229Z,22.00
2023-07-03T08:05:01.077Z,25.40
2023-07-03T08:06:01.072Z,23.60
2023-07-03T08:07:00.994Z,23.20
2023-07-03T08:08:00.952Z,22.60
2023-07-03T08:09:01.028Z,23.80
2023-07-03T08:10:01.056Z,24.70
2023-07-03T08:11:00.932Z,25.30
2023-07-03T08:12:00.913Z,24.40
2023-07-03T08:13:00.906Z,29.20
2023-07-03T08:14:00.890Z,23.20
2023-07-03T08:15:00.912Z,25.50
2023-07-03T08:16:00.903Z,28.10
2023-07-03T08:17:00.870Z,27.70
2023-07-03T08:18:00.916Z,21.80
2023-07-03T08:19:00.872Z,27.10
2023-07-03T08:20:00.850Z,25.70
2023-07-03T08:21:00.829Z,27.20
2023-07-03T08:22:00.893Z,20.70
2023-07-03T08:23:00.813Z,24.70
2023-07-03T08:24:00.834Z,22.30
2023-07-03T08:25:00.795Z,22.70
2023-07-03T08:26:00.772Z,26.10
2023-07-03T08:27:00.764Z,25.60
2023-07-03T08:28:00.752Z,24.90
2023-07-03T08:29:00.754Z,32.10
2023-07-03T08:30:00.728Z,26.70
2023-07-03T08:31:00.726Z,29.30
2023-07-03T08:32:00.752Z,25.90
2023-07-03T08:33:00.755Z,23.70
2023-07-03T08:34:00.786Z,27.90
2023-07-03T08:38:01.785Z,27.90
2023-07-03T08:39:00.647Z,28.00
2023-07-03T08:40:00.630Z,25.50
2023-07-03T08:41:00.626Z,27.80
2023-07-03T08:42:00.625Z,25.10
2023-07-03T08:43:00.614Z,22.10
2023-07-03T08:44:00.629Z,24.60
2023-07-03T08:45:00.585Z,24.10
2023-07-03T08:46:00.616Z,23.40
2023-07-03T08:47:10.735Z,22.30
2023-07-03T08:48:02.721Z,24.30
2023-07-03T08:49:00.538Z,22.70
2023-07-03T08:50:00.528Z,28.40
2023-07-03T08:51:00.547Z,27.70
2023-07-03T08:52:00.523Z,24.10
2023-07-03T08:53:00.513Z,24.40
2023-07-03T08:54:00.639Z,24.60
2023-07-03T08:55:00.495Z,23.70
2023-07-03T08:56:00.482Z,28.50
2023-07-03T08:57:00.481Z,25.20
2023-07-03T08:58:00.474Z,30.60
2023-07-03T08:59:00.451Z,29.90
2023-07-03T09:00:00.515Z,26.70
2023-07-03T09:01:00.436Z,22.20
2023-07-03T09:02:00.683Z,30.30
2023-07-03T09:03:00.532Z,28.30
2023-07-03T09:04:00.488Z,25.80
2023-07-03T09:05:00.548Z,35.70
2023-07-03T09:06:00.387Z,24.90
2023-07-03T09:07:00.371Z,24.80
2023-07-03T09:08:00.350Z,32.50
2023-07-03T09:09:00.343Z,26.50
2023-07-03T09:10:00.407Z,26.90
2023-07-03T09:11:00.349Z,29.30
2023-07-03T09:12:00.383Z,22.10
2023-07-03T09:13:00.304Z,27.70
2023-07-03T09:14:00.324Z,23.60
2023-07-03T09:15:01.203Z,29.50
2023-07-03T09:16:00.287Z,23.20
2023-07-03T09:17:00.398Z,23.50
2023-07-03T09:18:00.308Z,27.10
2023-07-03T09:19:00.278Z,23.00
2023-07-03T09:20:00.245Z,21.80
2023-07-03T09:21:00.231Z,29.50
2023-07-03T09:22:00.234Z,25.30
2023-07-03T09:23:00.200Z,23.80
2023-07-03T09:24:00.212Z,28.50
2023-07-03T09:25:00.201Z,27.40
2023-07-03T09:26:04.438Z,25.50
2023-07-03T09:27:02.171Z,22.70
2023-07-03T09:28:26.062Z,18.40
2023-07-03T09:29:00.153Z,27.10
2023-07-03T09:30:00.172Z,22.60
2023-07-03T09:31:01.880Z,22.80
2023-07-03T09:32:00.251Z,20.60
2023-07-03T09:33:00.189Z,22.80
2023-07-03T09:34:00.115Z,20.70
2023-07-03T09:35:00.668Z,19.90
2023-07-03T09:36:00.994Z,22.80
2023-07-03T09:37:01.062Z,22.30
2023-07-03T09:38:00.060Z,21.00
2023-07-03T09:39:00.890Z,21.10
2023-07-03T09:40:00.120Z,28.70
2023-07-03T09:41:00.109Z,18.70
2023-07-03T09:42:01.087Z,23.20
2023-07-03T09:43:00.015Z,20.80
2023-07-03T09:44:00.052Z,25.70
2023-07-03T09:44:59.982Z,25.20
2023-07-03T09:45:59.980Z,24.70
2023-07-03T09:46:59.988Z,26.70
2023-07-03T09:48:00.420Z,18.10
2023-07-03T09:48:59.948Z,21.20
2023-07-03T09:49:59.938Z,20.10
2023-07-03T09:51:07.252Z,24.20
2023-07-03T09:52:01.959Z,24.70
2023-07-03T09:53:08.406Z,28.00
2023-07-03T09:54:01.900Z,20.80
2023-07-03T09:54:59.890Z,21.10
2023-07-03T09:55:59.877Z,22.10
2023-07-03T09:57:00.898Z,24.20
2023-07-03T09:57:59.961Z,26.30
2023-07-03T09:58:59.848Z,20.50
2023-07-03T09:59:59.856Z,22.00
2023-07-03T10:01:00.029Z,23.30
2023-07-03T10:04:00.856Z,18.10
2023-07-03T10:07:01.337Z,22.50
2023-07-03T10:07:59.893Z,24.10
2023-07-03T10:12:00.786Z,24.60
2023-07-03T10:12:59.868Z,21.40
2023-07-03T10:13:59.850Z,22.90
2023-07-03T10:14:59.696Z,22.60
2023-07-03T10:15:59.712Z,22.20
2023-07-03T10:16:59.724Z,28.60
2023-07-03T10:17:59.691Z,23.40
2023-07-03T10:18:59.657Z,24.70
2023-07-03T10:19:59.664Z,19.60
2023-07-03T10:20:59.647Z,23.60
2023-07-03T10:21:59.623Z,19.00
2023-07-03T10:22:59.641Z,22.60
2023-07-03T10:23:59.613Z,19.40
2023-07-03T10:24:59.605Z,22.00
2023-07-03T10:25:59.600Z,20.50
2023-07-03T10:26:59.579Z,18.20
2023-07-03T10:27:59.562Z,19.70
2023-07-03T10:28:59.612Z,16.70
2023-07-03T10:29:59.615Z,16.80
2023-07-03T10:30:59.568Z,15.20
2023-07-03T10:31:59.691Z,17.10
2023-07-03T10:32:59.549Z,16.50
2023-07-03T10:34:00.503Z,19.80
2023-07-03T10:34:59.516Z,18.00
2023-07-03T10:35:59.494Z,20.20
2023-07-03T10:36:59.487Z,16.80
2023-07-03T10:37:59.473Z,16.50
2023-07-03T10:38:59.491Z,19.90
2023-07-03T10:39:59.480Z,17.10
2023-07-03T10:40:59.442Z,21.70
2023-07-03T10:41:59.450Z,22.30
2023-07-03T10:42:59.443Z,19.30
2023-07-03T10:43:59.431Z,16.40
2023-07-03T10:44:59.407Z,17.20
2023-07-03T10:45:59.522Z,18.10
2023-07-03T10:46:59.404Z,21.20
2023-07-03T10:47:59.447Z,16.50
2023-07-03T10:48:59.382Z,19.70
2023-07-03T10:49:59.361Z,20.00
2023-07-03T10:50:59.365Z,21.30
2023-07-03T10:51:59.363Z,15.50
2023-07-03T10:52:59.340Z,19.00
2023-07-03T10:53:59.342Z,18.00
2023-07-03T10:54:59.334Z,20.80
2023-07-03T10:55:59.327Z,15.00
2023-07-03T10:56:59.289Z,17.10
2023-07-03T10:57:59.302Z,21.60
2023-07-03T10:58:59.268Z,19.90
2023-07-03T10:59:59.257Z,17.50
2023-07-03T11:00:59.275Z,21.40
2023-07-03T11:01:59.334Z,15.60
2023-07-03T11:02:59.317Z,19.10
2023-07-03T11:04:11.176Z,19.80
2023-07-03T11:05:01.206Z,15.80
2023-07-03T11:05:59.196Z,16.80
2023-07-03T11:06:59.201Z,16.30
2023-07-03T11:07:59.209Z,13.80
2023-07-03T11:08:59.167Z,18.40
2023-07-03T11:09:59.160Z,13.30
2023-07-03T11:10:59.153Z,17.30
2023-07-03T11:11:59.157Z,23.70
2023-07-03T11:12:59.137Z,21.30
2023-07-03T11:13:59.230Z,17.10
2023-07-03T11:14:59.118Z,16.90
2023-07-03T11:15:59.173Z,21.80
2023-07-03T11:16:59.112Z,18.90
2023-07-03T11:20:00.066Z,16.50
2023-07-03T11:23:00.097Z,16.80
2023-07-03T11:23:59.039Z,21.60
2023-07-03T11:24:59.010Z,16.90
2023-07-03T11:27:59.989Z,19.10
2023-07-03T11:28:58.979Z,16.70
2023-07-03T11:29:58.969Z,16.10
2023-07-03T11:30:59.010Z,16.00
2023-07-03T11:31:58.943Z,19.00
2023-07-03T11:32:59.022Z,19.30
2023-07-03T11:35:59.952Z,21.50
2023-07-03T11:39:59.885Z,19.90
2023-07-03T11:40:58.946Z,18.10
2023-07-03T11:43:59.828Z,18.40
2023-07-03T11:44:58.826Z,19.10
2023-07-03T11:45:58.801Z,19.10
2023-07-03T11:46:58.801Z,18.60
2023-07-03T11:47:58.823Z,23.40
2023-07-03T11:48:58.784Z,13.80
2023-07-03T11:49:58.778Z,21.30
2023-07-03T11:50:58.757Z,16.30
2023-07-03T11:51:58.746Z,15.60
2023-07-03T11:52:58.735Z,21.10
2023-07-03T11:53:58.734Z,17.10
2023-07-03T11:54:58.710Z,17.70
2023-07-03T11:55:58.700Z,18.50
2023-07-03T11:56:58.691Z,18.80
2023-07-03T11:58:14.610Z,20.10
2023-07-03T11:59:00.683Z,19.20
2023-07-03T11:59:58.673Z,17.90
2023-07-03T12:00:58.671Z,18.50
2023-07-03T12:01:58.636Z,18.60
2023-07-03T12:02:58.728Z,17.60
2023-07-03T12:03:58.692Z,18.00
2023-07-03T12:04:58.611Z,18.50
2023-07-03T12:05:58.603Z,17.50
2023-07-03T12:06:58.593Z,18.90
2023-07-03T12:07:58.586Z,16.70
2023-07-03T12:08:58.566Z,19.10
2023-07-03T12:09:58.558Z,17.80
2023-07-03T12:10:58.559Z,17.90
2023-07-03T12:11:58.539Z,17.70
2023-07-03T12:12:58.551Z,13.70
2023-07-03T12:13:58.596Z,18.80
2023-07-03T12:14:58.533Z,20.10
2023-07-03T12:15:58.511Z,14.50
2023-07-03T12:16:58.532Z,17.30
2023-07-03T12:17:58.509Z,21.10
2023-07-03T12:18:58.484Z,17.90
2023-07-03T12:19:58.479Z,18.80
2023-07-03T12:20:58.461Z,21.30
2023-07-03T12:21:58.455Z,14.90
2023-07-03T12:22:58.463Z,15.20
2023-07-03T12:23:58.418Z,16.60
2023-07-03T12:24:58.428Z,18.30
2023-07-03T12:25:58.461Z,18.70
2023-07-03T12:26:58.415Z,17.70
2023-07-03T12:27:58.381Z,19.40
2023-07-03T12:28:58.368Z,16.80
2023-07-03T12:29:59.363Z,19.50
2023-07-03T12:30:58.459Z,18.50
2023-07-03T12:31:58.356Z,16.20
2023-07-03T12:32:58.472Z,15.90
2023-07-03T12:33:58.323Z,18.20
2023-07-03T12:34:58.318Z,20.00
2023-07-03T12:35:58.328Z,17.20
2023-07-03T12:37:02.681Z,21.20
2023-07-03T12:37:59.294Z,18.50
2023-07-03T12:38:58.280Z,15.30
2023-07-03T12:39:58.279Z,15.80
2023-07-03T12:40:58.266Z,17.70
2023-07-03T12:41:58.248Z,16.70
2023-07-03T12:42:58.241Z,17.10
2023-07-03T12:44:59.233Z,14.40
2023-07-03T12:45:58.227Z,14.60
2023-07-03T12:46:58.212Z,15.90
2023-07-03T12:47:58.232Z,20.10
2023-07-03T12:48:58.177Z,18.30
2023-07-03T12:49:58.179Z,15.00
2023-07-03T12:50:58.162Z,15.00
2023-07-03T12:51:58.152Z,17.30
2023-07-03T12:52:58.154Z,16.50
2023-07-03T12:53:58.140Z,16.50
2023-07-03T12:55:13.826Z,19.20
2023-07-03T12:56:00.119Z,17.70
2023-07-03T12:56:59.096Z,14.90
2023-07-03T12:57:58.097Z,17.50
2023-07-03T12:58:58.090Z,18.90
2023-07-03T12:59:58.070Z,16.60
2023-07-03T13:00:58.111Z,17.80
2023-07-03T13:01:58.055Z,17.20
2023-07-03T13:02:58.079Z,16.10
2023-07-03T13:03:58.035Z,18.20
2023-07-03T13:04:58.099Z,17.40
2023-07-03T13:05:58.269Z,15.10
2023-07-03T13:06:57.995Z,15.40
2023-07-03T13:07:58.003Z,17.00
2023-07-03T13:08:57.991Z,17.10
2023-07-03T13:09:58.094Z,15.50
2023-07-03T13:10:58.890Z,18.30
2023-07-03T13:11:58.954Z,20.70
2023-07-03T13:12:57.953Z,17.10
2023-07-03T13:13:58.032Z,16.80
2023-07-03T13:14:57.933Z,17.90
2023-07-03T13:15:57.921Z,13.60